Time;durP1;ratioP1;P1;durP2;ratioP2;P2;SDS_P1;SDS_P2;PMS_P1;PMS_P2;Temp;Humidity;BMP_temperature;BMP_pressure;BME280_temperature;BME280_humidity;BME280_pressure;Samples;Min_cycle;Max_cycle;Signal;HPM_P1;HPM_P2
2022/03/10 00:00:27;;;;;;;9.20;7.63;;;5.60;99.90;;;;;;4915848;29;20232;-60
2022/03/10 00:02:57;;;;;;;9.63;6.53;;;5.70;99.90;;;;;;4916323;29;20249;-60
2022/03/10 00:05:25;;;;;;;9.50;6.80;;;5.60;99.90;;;;;;4916492;29;20228;-60
2022/03/10 00:07:54;;;;;;;8.33;6.77;;;5.70;99.90;;;;;;4915765;29;20276;-60
2022/03/10 00:10:22;;;;;;;7.27;5.97;;;5.60;99.90;;;;;;4915785;29;20597;-60
2022/03/10 00:12:51;;;;;;;11.27;6.17;;;5.80;99.90;;;;;;4915774;29;20341;-60
2022/03/10 00:15:21;;;;;;;9.83;6.83;;;5.80;99.90;;;;;;4915939;29;20268;-60
2022/03/10 00:17:49;;;;;;;10.70;6.43;;;5.70;99.90;;;;;;4915814;29;20249;-60
2022/03/10 00:20:20;;;;;;;10.80;7.23;;;5.80;99.90;;;;;;4915797;29;20241;-60
2022/03/10 00:22:50;;;;;;;9.90;6.33;;;5.70;99.90;;;;;;4920234;29;20312;-60
2022/03/10 00:25:19;;;;;;;7.30;5.83;;;5.70;99.90;;;;;;4915813;29;20236;-60
2022/03/10 00:27:48;;;;;;;9.77;6.13;;;5.70;99.90;;;;;;4917145;29;20284;-60
2022/03/10 00:30:16;;;;;;;9.10;5.50;;;5.60;99.90;;;;;;4915606;29;20239;-61
2022/03/10 00:32:48;;;;;;;7.37;5.77;;;5.80;99.90;;;;;;4915228;29;20330;-60
2022/03/10 00:35:20;;;;;;;9.23;7.47;;;5.80;99.90;;;;;;4915388;29;20236;-60
2022/03/10 00:37:57;;;;;;;6.83;5.97;;;5.70;99.90;;;;;;4922826;29;20295;-60
2022/03/10 00:40:26;;;;;;;11.70;6.97;;;5.70;99.90;;;;;;4933324;29;20231;-60
2022/03/10 00:42:54;;;;;;;8.97;6.67;;;5.70;99.90;;;;;;4922771;29;20247;-60
2022/03/10 00:45:22;;;;;;;10.10;6.43;;;5.70;99.90;;;;;;4934431;29;20747;-60
2022/03/10 00:47:51;;;;;;;9.10;7.03;;;5.60;99.90;;;;;;4934174;29;20272;-60
2022/03/10 00:50:23;;;;;;;9.03;6.80;;;5.40;99.90;;;;;;4934196;29;20242;-60
2022/03/10 00:52:51;;;;;;;10.20;7.03;;;5.30;99.90;;;;;;4924386;29;20255;-62
2022/03/10 00:55:20;;;;;;;10.20;6.70;;;5.20;99.90;;;;;;4914975;29;20236;-62
2022/03/10 00:57:49;;;;;;;9.00;7.17;;;5.20;99.90;;;;;;4915117;29;20241;-62
2022/03/10 01:00:18;;;;;;;10.83;6.63;;;5.10;99.90;;;;;;4915071;29;20238;-62
2022/03/10 01:02:46;;;;;;;10.10;7.43;;;5.00;99.90;;;;;;4914485;29;20317;-62
2022/03/10 01:05:15;;;;;;;9.47;6.70;;;5.00;99.90;;;;;;4915562;29;20232;-62
2022/03/10 01:07:44;;;;;;;8.20;6.50;;;5.00;99.90;;;;;;4920896;29;20704;-62
2022/03/10 01:10:14;;;;;;;11.47;7.20;;;4.90;99.90;;;;;;4934178;29;20843;-62
2022/03/10 01:12:45;;;;;;;10.30;7.20;;;4.80;99.90;;;;;;4933823;29;20715;-62
2022/03/10 01:15:15;;;;;;;8.93;6.97;;;4.80;99.90;;;;;;4934334;29;20239;-62
2022/03/10 01:17:44;;;;;;;9.83;7.03;;;4.80;99.90;;;;;;4934131;29;20248;-62
2022/03/10 01:20:16;;;;;;;9.30;6.43;;;4.80;99.90;;;;;;4933721;29;20246;-62
2022/03/10 01:22:46;;;;;;;8.27;5.97;;;5.00;99.90;;;;;;4917961;29;20480;-62
2022/03/10 01:25:17;;;;;;;10.23;7.20;;;5.00;99.90;;;;;;4914458;29;20242;-62
2022/03/10 01:27:46;;;;;;;9.03;6.70;;;4.80;99.90;;;;;;4921131;29;20242;-62
2022/03/10 01:30:14;;;;;;;10.07;6.80;;;4.80;99.90;;;;;;4934009;29;20683;-62
2022/03/10 01:32:44;;;;;;;12.67;7.50;;;4.70;99.90;;;;;;4933595;29;20983;-62
2022/03/10 01:35:13;;;;;;;9.53;6.90;;;4.70;99.90;;;;;;4933908;29;20238;-62
2022/03/10 01:37:42;;;;;;;9.57;6.50;;;4.60;99.90;;;;;;4928077;29;20263;-62
2022/03/10 01:40:14;;;;;;;9.30;6.97;;;4.60;99.90;;;;;;4914770;29;20268;-62
2022/03/10 01:42:42;;;;;;;10.57;7.10;;;4.60;99.90;;;;;;4920028;29;20609;-62
2022/03/10 01:45:12;;;;;;;9.13;7.20;;;4.60;99.90;;;;;;4933663;29;20238;-62
2022/03/10 01:47:41;;;;;;;10.50;6.60;;;4.60;99.90;;;;;;4933462;29;20718;-62
2022/03/10 01:50:11;;;;;;;9.20;6.60;;;4.60;99.90;;;;;;4933333;29;20474;-62
2022/03/10 01:52:41;;;;;;;9.13;6.97;;;4.70;99.90;;;;;;4923790;29;20763;-62
2022/03/10 01:55:11;;;;;;;7.03;5.70;;;4.70;99.90;;;;;;4914524;29;20240;-62
2022/03/10 01:57:43;;;;;;;11.70;7.17;;;4.80;99.90;;;;;;4914415;29;20281;-62
2022/03/10 02:00:13;;;;;;;8.27;6.33;;;4.80;99.90;;;;;;4914572;29;20586;-62
2022/03/10 02:02:41;;;;;;;7.87;5.87;;;4.90;99.90;;;;;;4916586;29;20503;-62
2022/03/10 02:05:09;;;;;;;8.20;6.40;;;5.20;99.90;;;;;;4934961;29;20559;-62
2022/03/10 02:10:28;;;;;;;7.03;5.63;;;5.10;99.90;;;;;;4931686;29;20318;-62
2022/03/10 02:12:57;;;;;;;8.47;6.17;;;5.10;99.90;;;;;;4933325;29;20251;-62
2022/03/10 02:18:16;;;;;;;8.23;5.93;;;4.70;99.90;;;;;;4928103;29;20247;-62
2022/03/10 02:20:44;;;;;;;8.77;6.53;;;4.60;99.90;;;;;;4933578;29;20236;-62
2022/03/10 02:23:17;;;;;;;7.47;6.00;;;4.50;99.90;;;;;;4917437;29;20464;-62
2022/03/10 02:25:46;;;;;;;7.87;6.50;;;4.50;99.90;;;;;;4917749;29;20476;-62
2022/03/10 02:28:17;;;;;;;7.97;6.27;;;4.40;99.90;;;;;;4917910;29;20246;-62
2022/03/10 02:30:45;;;;;;;8.60;6.23;;;4.30;99.90;;;;;;4917805;29;20496;-62
2022/03/10 02:33:14;;;;;;;9.50;6.60;;;4.30;99.90;;;;;;4917532;29;20560;-62
2022/03/10 02:35:42;;;;;;;9.33;6.40;;;4.20;99.90;;;;;;4918404;29;20239;-62
2022/03/10 02:38:18;;;;;;;10.20;6.47;;;4.20;99.90;;;;;;4917961;29;20479;-62
2022/03/10 02:40:46;;;;;;;9.07;6.70;;;4.20;99.90;;;;;;4917397;29;20239;-62
2022/03/10 02:43:14;;;;;;;8.83;6.30;;;4.20;99.90;;;;;;4927537;29;20482;-63
2022/03/10 02:45:43;;;;;;;9.50;6.60;;;4.20;99.90;;;;;;4937163;29;20563;-62
2022/03/10 02:48:11;;;;;;;8.40;6.27;;;4.10;99.90;;;;;;4927128;29;20469;-62
2022/03/10 02:50:40;;;;;;;7.63;5.93;;;4.10;99.90;;;;;;4917618;29;20266;-62
2022/03/10 02:53:08;;;;;;;8.20;6.13;;;4.10;99.90;;;;;;4917054;29;20483;-62
2022/03/10 02:55:37;;;;;;;8.73;6.13;;;4.20;99.90;;;;;;4917029;29;20468;-62
2022/03/10 02:58:05;;;;;;;8.67;6.17;;;4.30;99.90;;;;;;4926063;29;20470;-62
2022/03/10 03:00:34;;;;;;;9.43;6.30;;;4.20;99.90;;;;;;4935964;29;20240;-62
2022/03/10 03:03:02;;;;;;;9.53;6.23;;;4.20;99.90;;;;;;4936232;29;20236;-62
2022/03/10 03:05:30;;;;;;;9.67;6.77;;;4.10;99.90;;;;;;4936295;29;20896;-62
2022/03/10 03:07:59;;;;;;;12.20;6.73;;;4.10;99.90;;;;;;4935703;29;20499;-62
2022/03/10 03:10:27;;;;;;;8.23;6.47;;;4.00;99.90;;;;;;4935997;29;20529;-62
2022/03/10 03:12:57;;;;;;;10.93;6.20;;;4.00;99.90;;;;;;4935962;29;20483;-62
2022/03/10 03:15:25;;;;;;;9.10;6.30;;;4.00;99.90;;;;;;4936203;29;21003;-62
2022/03/10 03:17:53;;;;;;;10.03;6.80;;;4.00;99.90;;;;;;4936074;29;20242;-62
2022/03/10 03:20:21;;;;;;;9.77;6.77;;;4.00;99.90;;;;;;4935412;29;20471;-62
2022/03/10 03:22:50;;;;;;;10.27;6.23;;;4.00;99.90;;;;;;4918245;29;20487;-62
2022/03/10 03:25:18;;;;;;;8.93;6.40;;;4.00;99.90;;;;;;4916115;29;20572;-62
2022/03/10 03:27:49;;;;;;;8.10;5.57;;;4.10;99.90;;;;;;4923199;29;20482;-62
2022/03/10 03:30:19;;;;;;;9.53;6.70;;;4.10;99.90;;;;;;4935894;29;20474;-62
2022/03/10 03:32:50;;;;;;;8.63;6.50;;;4.00;99.90;;;;;;4935520;29;20290;-62
2022/03/10 03:35:18;;;;;;;8.17;6.10;;;4.00;99.90;;;;;;4935674;29;20479;-62
2022/03/10 03:37:46;;;;;;;9.27;6.47;;;4.00;99.90;;;;;;4929346;29;20244;-62
2022/03/10 03:40:14;;;;;;;11.43;6.70;;;4.00;99.90;;;;;;4916744;29;20479;-62
2022/03/10 03:42:42;;;;;;;8.27;6.30;;;3.90;99.90;;;;;;4922186;29;20506;-62
2022/03/10 03:45:11;;;;;;;9.07;6.43;;;3.90;99.90;;;;;;4935879;29;20959;-62
2022/03/10 03:47:40;;;;;;;9.07;6.27;;;3.80;99.90;;;;;;4935658;29;20295;-62
2022/03/10 03:50:12;;;;;;;8.83;6.40;;;3.80;99.90;;;;;;4935625;29;20703;-62
2022/03/10 03:52:40;;;;;;;8.60;6.37;;;3.80;99.90;;;;;;4922121;29;20996;-62
2022/03/10 03:55:13;;;;;;;10.93;6.57;;;3.80;99.90;;;;;;4916758;29;20484;-62
2022/03/10 03:57:41;;;;;;;8.67;6.60;;;3.80;99.90;;;;;;4922001;29;20240;-62
2022/03/10 04:00:15;;;;;;;9.33;6.10;;;3.80;99.90;;;;;;4935481;29;20479;-62
2022/03/10 04:02:46;;;;;;;10.60;7.40;;;3.80;99.90;;;;;;4921352;29;20483;-62
2022/03/10 04:05:15;;;;;;;9.70;6.93;;;3.80;99.90;;;;;;4935236;29;20479;-62
2022/03/10 04:07:43;;;;;;;10.17;6.93;;;3.70;99.90;;;;;;4934827;29;20534;-63
2022/03/10 04:10:11;;;;;;;12.33;7.23;;;3.70;99.90;;;;;;4935633;29;20578;-62
2022/03/10 04:12:39;;;;;;;13.43;8.30;;;3.70;99.90;;;;;;4929876;29;20506;-62
2022/03/10 04:15:08;;;;;;;9.67;6.83;;;3.70;99.90;;;;;;4916174;29;20556;-62
2022/03/10 04:17:36;;;;;;;11.17;7.23;;;3.70;99.90;;;;;;4921178;29;20831;-62
2022/03/10 04:20:08;;;;;;;9.57;6.80;;;3.70;99.90;;;;;;4935053;29;20509;-62
2022/03/10 04:22:37;;;;;;;10.90;7.57;;;3.60;99.90;;;;;;4915779;29;20822;-62
2022/03/10 04:25:06;;;;;;;10.83;7.23;;;3.60;99.90;;;;;;4915603;29;20472;-62
2022/03/10 04:27:35;;;;;;;10.67;7.90;;;3.60;99.90;;;;;;4916041;29;20978;-62
2022/03/10 04:30:03;;;;;;;10.20;6.37;;;3.60;99.90;;;;;;4915827;29;20580;-62
2022/03/10 04:32:40;;;;;;;9.23;7.27;;;3.80;99.90;;;;;;4919815;29;20542;-62
2022/03/10 04:35:12;;;;;;;11.37;6.70;;;3.80;99.90;;;;;;4934708;29;20577;-62
2022/03/10 04:37:40;;;;;;;11.90;7.60;;;3.80;99.90;;;;;;4933729;29;20523;-62
2022/03/10 04:40:09;;;;;;;11.77;7.70;;;3.70;99.90;;;;;;4934332;29;20471;-62
2022/03/10 04:42:38;;;;;;;9.57;6.73;;;3.60;99.90;;;;;;4921254;29;20491;-61
2022/03/10 04:45:08;;;;;;;10.00;6.87;;;3.60;99.90;;;;;;4934297;29;20830;-61
2022/03/10 04:47:36;;;;;;;10.67;7.20;;;3.60;99.90;;;;;;4934220;29;20546;-62
2022/03/10 04:50:05;;;;;;;12.63;7.13;;;3.50;99.90;;;;;;4934304;29;20462;-62
2022/03/10 04:52:35;;;;;;;10.93;7.07;;;3.50;99.90;;;;;;4922266;29;20938;-62
2022/03/10 04:55:03;;;;;;;10.50;7.40;;;3.50;99.90;;;;;;4915205;29;20550;-62
2022/03/10 04:57:31;;;;;;;10.43;7.30;;;3.50;99.90;;;;;;4919360;29;20479;-62
2022/03/10 04:59:59;;;;;;;10.73;7.47;;;3.50;99.90;;;;;;4934004;29;20295;-62
2022/03/10 05:02:31;;;;;;;9.83;7.30;;;3.40;99.90;;;;;;4920819;29;20482;-62
2022/03/10 05:04:59;;;;;;;10.77;7.57;;;3.40;99.90;;;;;;4933955;29;20503;-62
2022/03/10 05:07:27;;;;;;;11.03;7.13;;;3.30;99.90;;;;;;4933472;29;20571;-62
2022/03/10 05:09:58;;;;;;;11.10;7.60;;;3.30;99.90;;;;;;4933942;29;20487;-62
2022/03/10 05:12:26;;;;;;;10.53;7.10;;;3.30;99.90;;;;;;4934115;29;20480;-62
2022/03/10 05:14:54;;;;;;;12.00;7.57;;;3.30;99.90;;;;;;4933805;29;20495;-62
2022/03/10 05:17:23;;;;;;;11.47;7.07;;;3.30;99.90;;;;;;4930895;29;20568;-62
2022/03/10 05:19:52;;;;;;;11.23;7.33;;;3.20;99.90;;;;;;4914829;29;20484;-62
2022/03/10 05:22:20;;;;;;;12.43;7.60;;;3.20;99.90;;;;;;4914243;29;20983;-62
2022/03/10 05:24:48;;;;;;;12.07;8.23;;;3.20;99.90;;;;;;4914624;29;20479;-62
2022/03/10 05:27:18;;;;;;;12.87;7.37;;;3.20;99.90;;;;;;4914733;29;20479;-62
2022/03/10 05:29:46;;;;;;;9.60;7.43;;;3.20;99.90;;;;;;4914812;29;21013;-62
2022/03/10 05:32:18;;;;;;;10.97;7.20;;;3.10;99.90;;;;;;4914435;29;20469;-62
2022/03/10 05:34:46;;;;;;;10.17;7.77;;;3.10;99.90;;;;;;4914408;29;20523;-62
2022/03/10 05:37:14;;;;;;;11.73;7.63;;;3.10;99.90;;;;;;4915547;29;20492;-62
2022/03/10 05:39:42;;;;;;;13.73;7.90;;;3.10;99.90;;;;;;4915123;29;20561;-62
2022/03/10 05:42:10;;;;;;;10.87;7.23;;;3.10;99.90;;;;;;4914447;29;20510;-62
2022/03/10 05:44:41;;;;;;;10.10;8.00;;;3.00;99.90;;;;;;4895802;29;20473;-62
2022/03/10 05:47:10;;;;;;;10.27;7.33;;;3.00;99.90;;;;;;4898668;29;20509;-62
2022/03/10 05:49:38;;;;;;;11.77;7.70;;;3.00;99.90;;;;;;4933264;29;20466;-62
2022/03/10 05:52:07;;;;;;;12.70;8.77;;;3.40;99.90;;;;;;4920259;29;20556;-62
2022/03/10 05:54:35;;;;;;;14.33;8.70;;;3.40;99.90;;;;;;4914515;29;20476;-62
2022/03/10 05:57:04;;;;;;;12.13;9.10;;;3.50;99.90;;;;;;4915064;29;20516;-62
2022/03/10 05:59:32;;;;;;;18.87;11.50;;;3.70;99.90;;;;;;4913794;29;20836;-62
2022/03/10 06:02:01;;;;;;;18.37;11.80;;;3.60;99.90;;;;;;4913687;29;21063;-62
2022/03/10 06:04:30;;;;;;;17.10;11.43;;;3.50;99.90;;;;;;4913993;29;20487;-62
2022/03/10 06:06:58;;;;;;;17.60;11.17;;;3.30;99.90;;;;;;4914323;29;20547;-62
2022/03/10 06:09:26;;;;;;;15.03;10.17;;;3.20;99.90;;;;;;4913661;29;20494;-62
2022/03/10 06:11:54;;;;;;;20.57;11.37;;;3.20;99.90;;;;;;4913078;29;20579;-62
2022/03/10 06:14:22;;;;;;;16.87;11.13;;;3.20;99.90;;;;;;4915735;29;20818;-62
2022/03/10 06:16:51;;;;;;;19.87;10.53;;;3.10;99.90;;;;;;4913985;29;20476;-62
2022/03/10 06:19:21;;;;;;;18.70;9.67;;;3.10;99.90;;;;;;4913843;29;20479;-62
2022/03/10 06:21:51;;;;;;;15.33;9.37;;;3.10;99.90;;;;;;4916020;29;20478;-62
2022/03/10 06:24:19;;;;;;;15.80;9.73;;;3.10;99.90;;;;;;4913723;29;20580;-62
2022/03/10 06:26:47;;;;;;;12.90;9.40;;;3.20;99.90;;;;;;4914121;29;20472;-62
2022/03/10 06:29:15;;;;;;;11.40;8.13;;;3.30;99.90;;;;;;4913719;29;20507;-62
2022/03/10 06:31:43;;;;;;;13.80;8.80;;;3.40;99.90;;;;;;4909642;29;20480;-62
2022/03/10 06:34:12;;;;;;;12.67;7.77;;;3.40;99.90;;;;;;4914191;29;20475;-62
2022/03/10 06:36:42;;;;;;;13.13;8.17;;;3.40;99.90;;;;;;4912383;29;20555;-62
2022/03/10 06:39:12;;;;;;;12.53;7.93;;;3.50;99.90;;;;;;4915680;29;20566;-62
2022/03/10 06:41:40;;;;;;;11.63;8.20;;;3.60;99.90;;;;;;4913690;29;20491;-62
2022/03/10 06:44:09;;;;;;;12.80;9.33;;;3.70;99.90;;;;;;4915029;29;20575;-62
2022/03/10 06:46:37;;;;;;;12.90;9.23;;;3.70;99.90;;;;;;4912920;29;20556;-62
2022/03/10 06:49:05;;;;;;;12.67;8.70;;;3.80;99.90;;;;;;4913088;29;20869;-62
2022/03/10 06:51:33;;;;;;;11.97;8.87;;;3.90;99.90;;;;;;4913273;29;20496;-62
2022/03/10 06:54:03;;;;;;;11.80;8.10;;;4.00;99.90;;;;;;4913502;29;20468;-62
2022/03/10 06:56:31;;;;;;;13.07;8.50;;;4.10;99.90;;;;;;4914115;29;20535;-62
2022/03/10 06:58:59;;;;;;;11.20;8.07;;;4.30;99.90;;;;;;4913394;29;20237;-63
2022/03/10 07:01:27;;;;;;;10.17;7.67;;;4.40;99.90;;;;;;4915015;29;20484;-62
2022/03/10 07:03:57;;;;;;;12.57;8.03;;;4.60;99.90;;;;;;4916772;29;21011;-62
2022/03/10 07:06:25;;;;;;;11.77;8.47;;;4.70;99.90;;;;;;4916945;29;20487;-62
2022/03/10 07:08:54;;;;;;;10.17;8.10;;;4.90;99.90;;;;;;4915081;29;20465;-62
2022/03/10 07:11:25;;;;;;;12.37;8.10;;;5.10;99.90;;;;;;4917032;29;20240;-62
2022/03/10 07:13:53;;;;;;;10.37;6.93;;;5.30;99.90;;;;;;4927785;29;20768;-62
2022/03/10 07:16:21;;;;;;;10.27;7.40;;;5.50;99.90;;;;;;4915987;29;20240;-62
2022/03/10 07:18:51;;;;;;;10.87;7.80;;;5.70;99.90;;;;;;4916309;29;20323;-62
2022/03/10 07:21:19;;;;;;;10.53;7.13;;;5.90;99.90;;;;;;4915512;29;20237;-62
2022/03/10 07:23:48;;;;;;;11.40;7.80;;;6.00;99.90;;;;;;4916387;29;20244;-62
2022/03/10 07:26:16;;;;;;;11.03;6.90;;;6.10;99.90;;;;;;4916406;29;20236;-62
2022/03/10 07:28:45;;;;;;;9.87;7.03;;;6.20;99.90;;;;;;4916843;29;20653;-62
2022/03/10 07:31:13;;;;;;;10.03;7.40;;;6.30;99.90;;;;;;4916647;29;20267;-62
2022/03/10 07:33:42;;;;;;;10.43;7.30;;;6.50;99.90;;;;;;4916954;29;20255;-62
2022/03/10 07:36:14;;;;;;;12.07;7.63;;;6.60;99.90;;;;;;4920872;29;20588;-62
2022/03/10 07:38:42;;;;;;;9.80;6.70;;;6.90;99.90;;;;;;4915591;29;20237;-62
2022/03/10 07:41:10;;;;;;;10.77;7.17;;;7.10;99.90;;;;;;4916356;29;20271;-62
2022/03/10 07:43:39;;;;;;;10.70;6.93;;;7.20;99.90;;;;;;4916725;29;20578;-62
2022/03/10 07:46:08;;;;;;;10.00;7.63;;;7.30;99.90;;;;;;4924616;29;20291;-62
2022/03/10 07:48:36;;;;;;;11.50;7.53;;;7.40;99.90;;;;;;4922334;29;20233;-62
2022/03/10 07:51:05;;;;;;;9.67;7.60;;;7.50;99.90;;;;;;4916343;29;20236;-62
2022/03/10 07:53:33;;;;;;;8.93;7.13;;;7.50;99.90;;;;;;4916332;29;20241;-62
2022/03/10 07:56:04;;;;;;;11.40;7.33;;;7.80;99.90;;;;;;4916189;29;20323;-62
2022/03/10 07:58:33;;;;;;;9.93;6.63;;;7.80;99.90;;;;;;4917428;29;20272;-62
2022/03/10 08:01:01;;;;;;;9.73;6.87;;;8.00;99.90;;;;;;4916290;29;20260;-62
2022/03/10 08:03:31;;;;;;;11.53;7.33;;;8.00;99.90;;;;;;4916395;29;20237;-61
2022/03/10 08:05:59;;;;;;;9.73;7.37;;;8.10;99.90;;;;;;4899045;29;20260;-61
2022/03/10 08:08:27;;;;;;;10.03;7.13;;;8.20;99.90;;;;;;4919068;29;20225;-62
2022/03/10 08:10:55;;;;;;;9.83;6.77;;;8.30;99.90;;;;;;4915894;29;20781;-61
2022/03/10 08:13:26;;;;;;;8.73;6.80;;;8.50;99.90;;;;;;4926539;29;20229;-61
2022/03/10 08:15:54;;;;;;;9.53;6.93;;;8.60;99.90;;;;;;4915969;29;20224;-62
2022/03/10 08:18:23;;;;;;;12.90;7.20;;;8.80;99.90;;;;;;4915631;29;20252;-62
2022/03/10 08:20:52;;;;;;;9.43;6.97;;;8.80;99.90;;;;;;4915975;29;20660;-62
2022/03/10 08:23:21;;;;;;;9.33;7.50;;;8.90;99.90;;;;;;4915651;29;20245;-62
2022/03/10 08:25:49;;;;;;;9.03;6.87;;;9.20;99.90;;;;;;4915756;29;20579;-62
2022/03/10 08:28:17;;;;;;;9.67;7.27;;;9.30;99.90;;;;;;4923877;29;20237;-62
2022/03/10 08:30:45;;;;;;;9.83;7.63;;;9.40;99.90;;;;;;4915725;29;20245;-62
2022/03/10 08:33:15;;;;;;;8.57;6.97;;;9.50;99.90;;;;;;4915676;29;20228;-62
2022/03/10 08:35:43;;;;;;;10.67;7.10;;;9.70;99.90;;;;;;4915130;29;20283;-62
2022/03/10 08:38:13;;;;;;;12.87;7.63;;;9.90;99.90;;;;;;4914626;29;20236;-62
2022/03/10 08:40:41;;;;;;;8.07;6.50;;;10.00;99.90;;;;;;4914513;29;20238;-62
2022/03/10 08:43:12;;;;;;;11.20;7.40;;;10.10;99.90;;;;;;4915444;29;20228;-62
2022/03/10 08:45:40;;;;;;;9.63;7.23;;;10.20;99.90;;;;;;4915196;29;20697;-61
2022/03/10 08:48:09;;;;;;;10.50;7.03;;;10.20;99.90;;;;;;4915402;29;20253;-62
2022/03/10 08:50:38;;;;;;;8.50;6.90;;;10.40;99.90;;;;;;4915218;29;20265;-62
2022/03/10 08:53:06;;;;;;;9.93;6.80;;;10.60;99.90;;;;;;4918768;29;20259;-62
2022/03/10 08:55:36;;;;;;;10.90;6.63;;;10.70;99.90;;;;;;4915055;29;20229;-62
2022/03/10 08:58:05;;;;;;;7.90;6.30;;;10.80;99.90;;;;;;4914772;29;20701;-60
2022/03/10 09:00:33;;;;;;;8.53;7.13;;;11.00;99.90;;;;;;4913833;29;20776;-60
2022/03/10 09:03:02;;;;;;;9.77;7.03;;;11.10;99.90;;;;;;4915021;29;20242;-60
2022/03/10 09:05:34;;;;;;;8.40;6.67;;;11.10;99.90;;;;;;4914858;29;20325;-61
2022/03/10 09:08:02;;;;;;;9.27;6.87;;;11.40;99.90;;;;;;4914302;29;20237;-60
2022/03/10 09:10:31;;;;;;;9.77;7.20;;;11.60;99.90;;;;;;4914865;29;20235;-60
2022/03/10 09:13:00;;;;;;;10.23;7.00;;;11.50;99.90;;;;;;4915038;29;20242;-60
2022/03/10 09:15:29;;;;;;;7.00;6.17;;;11.60;99.90;;;;;;4915108;29;20663;-60
2022/03/10 09:17:57;;;;;;;10.37;6.70;;;11.60;99.90;;;;;;4914756;29;20257;-59
2022/03/10 09:20:25;;;;;;;9.33;6.70;;;11.90;99.90;;;;;;4915081;29;20321;-60
2022/03/10 09:22:53;;;;;;;9.80;6.80;;;12.00;99.90;;;;;;4913465;29;20968;-59
2022/03/10 09:25:21;;;;;;;10.13;7.43;;;12.10;99.90;;;;;;4913317;29;20240;-60
2022/03/10 09:27:50;;;;;;;11.57;6.90;;;12.30;99.90;;;;;;4913854;29;20240;-59
2022/03/10 09:30:20;;;;;;;9.50;6.80;;;12.20;99.90;;;;;;4913659;29;20331;-60
2022/03/10 09:32:48;;;;;;;10.00;7.00;;;12.30;99.90;;;;;;4914202;29;20607;-59
2022/03/10 09:35:18;;;;;;;8.80;7.37;;;12.40;99.90;;;;;;4914642;29;20264;-59
2022/03/10 09:37:46;;;;;;;9.50;7.50;;;12.70;99.90;;;;;;4914299;29;20247;-59
2022/03/10 09:40:14;;;;;;;9.73;7.37;;;12.90;99.90;;;;;;4914450;29;20236;-59
2022/03/10 09:42:46;;;;;;;10.70;7.53;;;13.00;99.90;;;;;;4914746;29;20327;-59
2022/03/10 09:45:17;;;;;;;10.50;7.13;;;13.00;99.90;;;;;;4914174;29;20358;-59
2022/03/10 09:47:47;;;;;;;10.10;6.90;;;13.30;99.90;;;;;;4915931;29;20240;-59
2022/03/10 09:50:17;;;;;;;8.97;7.07;;;13.20;99.90;;;;;;4914178;29;20288;-59
2022/03/10 09:52:46;;;;;;;9.00;7.30;;;13.10;99.90;;;;;;4914391;29;20267;-59
2022/03/10 09:55:19;;;;;;;8.83;6.97;;;12.90;99.90;;;;;;4911792;29;20242;-59
2022/03/10 09:57:48;;;;;;;9.90;7.33;;;13.00;99.90;;;;;;4914147;29;20287;-59
2022/03/10 10:00:18;;;;;;;9.83;7.23;;;13.00;99.90;;;;;;4913798;29;20239;-59
2022/03/10 10:02:48;;;;;;;10.70;7.33;;;13.40;99.90;;;;;;4914576;29;20299;-59
2022/03/10 10:05:21;;;;;;;9.07;7.50;;;13.60;99.90;;;;;;4917314;29;20241;-59
2022/03/10 10:08:03;;;;;;;10.20;7.27;;;13.70;99.90;;;;;;4926290;29;20669;-59
2022/03/10 10:10:34;;;;;;;9.13;7.27;;;13.50;99.90;;;;;;4914290;29;20759;-59
2022/03/10 10:13:11;;;;;;;8.77;7.20;;;13.50;99.90;;;;;;4916040;29;20248;-59
2022/03/10 10:15:42;;;;;;;10.73;7.27;;;13.60;99.90;;;;;;4912331;29;20557;-59
2022/03/10 10:18:16;;;;;;;10.90;7.10;;;13.50;99.90;;;;;;4914086;29;20288;-59
2022/03/10 10:21:05;;;;;;;9.83;7.10;;;13.80;99.90;;;;;;4909846;29;20719;-59
2022/03/10 10:23:34;;;;;;;8.33;6.67;;;14.00;99.90;;;;;;4913875;29;20231;-59
2022/03/10 10:26:05;;;;;;;9.00;6.73;;;14.00;99.90;;;;;;4911263;29;20325;-59
2022/03/10 10:28:35;;;;;;;10.17;7.87;;;14.10;99.90;;;;;;4913576;29;20250;-59
2022/03/10 10:31:05;;;;;;;7.80;6.60;;;14.20;99.90;;;;;;4911713;29;20233;-59
2022/03/10 10:33:36;;;;;;;8.90;6.93;;;14.10;99.90;;;;;;4913770;29;20378;-59
2022/03/10 10:36:18;;;;;;;8.67;6.83;;;14.20;99.90;;;;;;4914334;29;20268;-59
2022/03/10 10:38:48;;;;;;;7.97;6.57;;;14.60;99.90;;;;;;4926576;29;20334;-59
2022/03/10 10:41:25;;;;;;;8.00;6.60;;;14.90;99.90;;;;;;4937185;29;20228;-60
2022/03/10 10:43:55;;;;;;;7.63;6.27;;;15.00;99.90;;;;;;4923500;29;20299;-59
2022/03/10 10:46:32;;;;;;;9.77;7.07;;;15.00;99.60;;;;;;4917989;29;20348;-59
2022/03/10 10:49:04;;;;;;;8.67;6.30;;;14.80;99.30;;;;;;4917737;29;20300;-59
2022/03/10 10:51:35;;;;;;;8.57;6.47;;;14.80;99.80;;;;;;4917685;29;20261;-59
2022/03/10 10:54:06;;;;;;;8.67;7.00;;;15.00;99.90;;;;;;4917395;29;20241;-59
2022/03/10 10:56:36;;;;;;;8.90;6.47;;;14.90;99.30;;;;;;4917495;29;20339;-59
2022/03/10 10:59:04;;;;;;;10.50;7.00;;;14.90;99.30;;;;;;4917051;29;20244;-59
2022/03/10 11:01:35;;;;;;;8.13;6.23;;;15.00;98.90;;;;;;4917468;29;20233;-59
2022/03/10 11:04:06;;;;;;;7.47;6.13;;;15.00;98.40;;;;;;4917209;29;20240;-59
2022/03/10 11:06:35;;;;;;;7.90;6.03;;;15.20;98.80;;;;;;4917324;29;20613;-60
2022/03/10 11:09:04;;;;;;;7.33;6.13;;;15.40;99.20;;;;;;4916297;29;20596;-59
2022/03/10 11:11:33;;;;;;;10.77;7.00;;;15.60;98.20;;;;;;4906787;29;20301;-59
2022/03/10 11:14:01;;;;;;;9.67;6.20;;;15.60;97.70;;;;;;4916189;29;20245;-59
2022/03/10 11:16:30;;;;;;;8.03;6.77;;;15.60;97.70;;;;;;4916915;29;20325;-59
2022/03/10 11:19:00;;;;;;;8.60;7.13;;;15.40;97.30;;;;;;4918322;29;20312;-59
2022/03/10 11:21:56;;;;;;;7.80;6.40;;;15.60;98.30;;;;;;4917432;29;20264;-59
2022/03/10 11:24:49;;;;;;;8.67;6.93;;;15.30;97.10;;;;;;4916665;29;20237;-59
2022/03/10 11:27:20;;;;;;;10.77;7.10;;;15.30;97.10;;;;;;4916577;29;20640;-60
2022/03/10 11:29:52;;;;;;;8.67;7.00;;;15.10;97.20;;;;;;4916824;29;20232;-59
2022/03/10 11:32:27;;;;;;;9.40;7.43;;;15.20;97.50;;;;;;4916856;29;20281;-59
2022/03/10 11:34:58;;;;;;;8.73;7.37;;;15.20;97.80;;;;;;4916781;29;20262;-59
2022/03/10 11:37:51;;;;;;;8.93;7.10;;;15.40;97.60;;;;;;4920048;29;20728;-59
2022/03/10 11:40:39;;;;;;;10.63;8.07;;;15.60;97.50;;;;;;4933344;29;20239;-59
2022/03/10 11:43:10;;;;;;;10.77;8.27;;;15.80;97.70;;;;;;4935510;29;20232;-59
2022/03/10 11:45:39;;;;;;;11.93;8.60;;;15.70;97.70;;;;;;4935576;29;20299;-59
2022/03/10 11:48:35;;;;;;;11.90;8.20;;;15.70;97.60;;;;;;4933898;29;20739;-59
2022/03/10 11:51:11;;;;;;;12.40;8.83;;;15.70;98.00;;;;;;4910404;29;20241;-59
2022/03/10 11:54:07;;;;;;;10.70;8.40;;;15.80;96.60;;;;;;4916515;29;20228;-59
2022/03/10 11:57:04;;;;;;;14.10;8.60;;;15.60;97.60;;;;;;4894818;29;20295;-59
2022/03/10 11:59:56;;;;;;;11.07;8.10;;;15.50;97.40;;;;;;4883673;29;20245;-59
2022/03/10 12:02:38;;;;;;;11.53;8.27;;;15.20;97.40;;;;;;4901863;29;20233;-59
2022/03/10 12:05:08;;;;;;;11.17;7.97;;;15.20;98.00;;;;;;4919030;29;20701;-59
2022/03/10 12:07:40;;;;;;;11.23;8.33;;;15.10;97.80;;;;;;4922845;29;20287;-59
2022/03/10 12:10:13;;;;;;;11.43;8.83;;;15.00;97.70;;;;;;4923635;29;20247;-59
2022/03/10 12:12:45;;;;;;;13.10;8.47;;;14.80;97.60;;;;;;4921101;29;20256;-59
2022/03/10 12:15:49;;;;;;;16.87;8.33;;;14.80;98.10;;;;;;4923220;29;20234;-59
2022/03/10 12:18:32;;;;;;;12.37;8.60;;;14.80;98.20;;;;;;4922591;29;20233;-59
2022/03/10 12:21:01;;;;;;;11.20;7.97;;;14.50;97.80;;;;;;4922797;29;20251;-59
2022/03/10 12:23:31;;;;;;;12.67;8.87;;;14.50;97.80;;;;;;4922036;29;20352;-59
2022/03/10 12:26:09;;;;;;;11.50;8.53;;;14.40;97.90;;;;;;4924724;29;20291;-59
2022/03/10 12:28:39;;;;;;;11.13;8.37;;;14.50;98.00;;;;;;4919654;29;21806;-59
2022/03/10 12:31:12;;;;;;;13.53;8.77;;;14.40;98.00;;;;;;4920449;29;20295;-59
2022/03/10 12:33:50;;;;;;;12.37;8.13;;;14.30;97.80;;;;;;4921303;29;20233;-59
2022/03/10 12:36:30;;;;;;;11.30;8.40;;;14.30;97.60;;;;;;4919524;29;20673;-59
2022/03/10 12:39:00;;;;;;;10.77;7.93;;;14.30;97.80;;;;;;4921207;29;20232;-59
2022/03/10 12:41:33;;;;;;;12.17;7.70;;;14.40;97.60;;;;;;4923609;29;20811;-60
2022/03/10 12:44:03;;;;;;;12.03;8.47;;;14.50;98.00;;;;;;4923352;29;20232;-59
2022/03/10 12:46:33;;;;;;;10.53;8.10;;;14.30;98.20;;;;;;4923467;29;20735;-59
2022/03/10 12:49:07;;;;;;;11.47;7.90;;;14.30;97.90;;;;;;4925354;29;20227;-59
2022/03/10 12:51:37;;;;;;;10.97;8.10;;;14.40;98.10;;;;;;4925311;29;20287;-59
2022/03/10 12:54:07;;;;;;;12.63;8.23;;;14.40;98.00;;;;;;4923747;29;20263;-59
2022/03/10 12:56:50;;;;;;;11.97;8.27;;;14.40;97.60;;;;;;4920976;29;20738;-59
2022/03/10 12:59:29;;;;;;;10.50;8.23;;;14.50;97.80;;;;;;4920558;29;20323;-60
2022/03/10 13:02:11;;;;;;;10.33;7.90;;;14.50;97.50;;;;;;4921131;29;20326;-59
2022/03/10 13:04:48;;;;;;;13.10;8.47;;;14.30;97.60;;;;;;4914907;29;20593;-59
2022/03/10 13:07:16;;;;;;;11.33;7.97;;;14.40;97.70;;;;;;4913385;29;20236;-59
2022/03/10 13:09:52;;;;;;;10.70;8.23;;;14.40;98.40;;;;;;4916688;29;20255;-60